This is the latest recevied weather packets stored in our database for station/object IZ5MMH-4. If no packets are shown the sender has not sent any weather packets the latest 10 day(s).
| Time | Temp. | Humidity | Pressure | Rain* | Wind** | Luminosity | Snow |
|---|---|---|---|---|---|---|---|
| 1777831479 | 21.67° C | 53% | 1020.2 hPa | - | - | - | - |
| 1777830879 | 21.67° C | 53% | 1020.1 hPa | - | - | - | - |
| 1777830278 | 22.22° C | 51% | 1020 hPa | - | - | - | - |
| 1777829678 | 22.22° C | 51% | 1020 hPa | - | - | - | - |
| 1777829078 | 22.22° C | 50% | 1020.1 hPa | - | - | - | - |
| 1777828479 | 22.78° C | 49% | 1020 hPa | - | - | - | - |
| 1777827879 | 22.78° C | 49% | 1020.1 hPa | - | - | - | - |
| 1777827278 | 22.78° C | 47% | 1020.2 hPa | - | - | - | - |
| 1777826078 | 22.78° C | 44% | 1020.1 hPa | - | - | - | - |
| 1777825478 | 23.33° C | 42% | 1020 hPa | - | - | - | - |
| 1777824879 | 23.89° C | 40% | 1020 hPa | - | - | - | - |
| 1777824278 | 23.89° C | 40% | 1020.1 hPa | - | - | - | - |
| 1777823678 | 24.44° C | 40% | 1020 hPa | - | - | - | - |
| 1777823078 | 25° C | 39% | 1019.9 hPa | - | - | - | - |
| 1777822479 | 25° C | 38% | 1020 hPa | - | - | - | - |
| 1777821878 | 25° C | 39% | 1020.3 hPa | - | - | - | - |
| 1777821278 | 25° C | 37% | 1020.2 hPa | - | - | - | - |
| 1777820678 | 24.44° C | 38% | 1020.3 hPa | - | - | - | - |
| 1777820078 | 25° C | 38% | 1020.2 hPa | - | - | - | - |
| 1777819480 | 25° C | 39% | 1020.3 hPa | - | - | - | - |
| 1777818878 | 25° C | 41% | 1020.3 hPa | - | - | - | - |
| 1777818278 | 25° C | 41% | 1020.5 hPa | - | - | - | - |
| 1777817678 | 25° C | 43% | 1020.6 hPa | - | - | - | - |
| 1777817079 | 24.44° C | 43% | 1020.8 hPa | - | - | - | - |
| 1777816478 | 24.44° C | 42% | 1021 hPa | - | - | - | - |
* Rain since midnight (hover to see other rain measurements)
** Current wind speed in m/s (hover to see current wind gust speed)